createdAt,value
2023-03-27T00:00:06.736Z,2.98
2023-03-27T00:01:06.703Z,2.97
2023-03-27T00:02:06.692Z,2.94
2023-03-27T00:03:06.756Z,2.94
2023-03-27T00:04:06.727Z,2.94
2023-03-27T00:05:06.634Z,2.94
2023-03-27T00:06:06.617Z,2.92
2023-03-27T00:07:06.642Z,2.90
2023-03-27T00:08:06.621Z,2.90
2023-03-27T00:09:06.615Z,2.89
2023-03-27T00:10:06.606Z,2.90
2023-03-27T00:11:06.618Z,2.89
2023-03-27T00:12:06.588Z,2.89
2023-03-27T00:13:06.615Z,2.87
2023-03-27T00:14:06.582Z,2.89
2023-03-27T00:15:06.618Z,2.90
2023-03-27T00:16:06.505Z,2.87
2023-03-27T00:17:06.510Z,2.84
2023-03-27T00:18:06.546Z,2.84
2023-03-27T00:19:06.486Z,2.84
2023-03-27T00:20:06.493Z,2.86
2023-03-27T00:21:06.503Z,2.86
2023-03-27T00:22:06.466Z,2.89
2023-03-27T00:23:06.520Z,2.86
2023-03-27T00:24:06.428Z,2.83
2023-03-27T00:25:06.428Z,2.83
2023-03-27T00:26:06.399Z,2.81
2023-03-27T00:27:06.424Z,2.81
2023-03-27T00:28:06.520Z,2.80
2023-03-27T00:29:06.368Z,2.83
2023-03-27T00:30:06.371Z,2.80
2023-03-27T00:31:06.409Z,2.79
2023-03-27T00:32:06.382Z,2.77
2023-03-27T00:33:06.640Z,2.79
2023-03-27T00:34:06.379Z,2.74
2023-03-27T00:35:06.332Z,2.76
2023-03-27T00:36:06.375Z,2.77
2023-03-27T00:37:06.307Z,2.76
2023-03-27T00:38:06.317Z,2.77
2023-03-27T00:39:06.264Z,2.77
2023-03-27T00:40:06.273Z,2.76
2023-03-27T00:41:06.261Z,2.74
2023-03-27T00:42:06.209Z,2.74
2023-03-27T00:43:06.239Z,2.73
2023-03-27T00:44:06.182Z,2.71
2023-03-27T00:45:06.233Z,2.66
2023-03-27T00:46:06.186Z,2.63
2023-03-27T00:47:06.243Z,2.63
2023-03-27T00:48:06.217Z,2.63
2023-03-27T00:49:06.189Z,2.61
2023-03-27T00:50:06.116Z,2.59
2023-03-27T00:51:06.115Z,2.56
2023-03-27T00:52:06.148Z,2.58
2023-03-27T00:53:06.170Z,2.55
2023-03-27T00:54:06.104Z,2.53
2023-03-27T00:55:06.140Z,2.51
2023-03-27T00:56:06.061Z,2.48
2023-03-27T00:57:06.081Z,2.45
2023-03-27T00:58:06.074Z,2.44
2023-03-27T00:59:06.020Z,2.41
2023-03-27T01:00:07.578Z,2.41
2023-03-27T01:01:06.100Z,2.38
2023-03-27T01:02:06.005Z,2.36
2023-03-27T01:03:06.109Z,2.37
2023-03-27T01:04:05.979Z,2.36
2023-03-27T01:05:05.949Z,2.33
2023-03-27T01:06:05.955Z,2.33
2023-03-27T01:07:05.964Z,2.33
2023-03-27T01:08:05.985Z,2.32
2023-03-27T01:09:05.960Z,2.29
2023-03-27T01:10:05.921Z,2.27
2023-03-27T01:11:05.909Z,2.26
2023-03-27T01:12:05.860Z,2.27
2023-03-27T01:13:05.922Z,2.22
2023-03-27T01:14:05.869Z,2.20
2023-03-27T01:15:05.852Z,2.20
2023-03-27T01:16:05.890Z,2.19
2023-03-27T01:17:05.862Z,2.19
2023-03-27T01:18:05.902Z,2.18
2023-03-27T01:19:05.795Z,2.18
2023-03-27T01:20:05.798Z,2.18
2023-03-27T01:21:05.786Z,2.15
2023-03-27T01:22:05.754Z,2.09
2023-03-27T01:23:05.794Z,2.09
2023-03-27T01:24:05.767Z,2.09
2023-03-27T01:25:05.736Z,2.11
2023-03-27T01:26:05.718Z,2.12
2023-03-27T01:27:05.713Z,2.09
2023-03-27T01:28:05.701Z,2.09
2023-03-27T01:29:05.761Z,2.09
2023-03-27T01:30:05.710Z,2.09
2023-03-27T01:31:05.717Z,2.07
2023-03-27T01:32:05.737Z,2.07
2023-03-27T01:33:05.742Z,2.04
2023-03-27T01:34:05.642Z,2.00
2023-03-27T01:35:05.645Z,2.00
2023-03-27T01:36:05.624Z,1.95
2023-03-27T01:37:05.595Z,1.98
2023-03-27T01:38:05.613Z,1.98
2023-03-27T01:39:05.580Z,1.98
2023-03-27T01:40:05.599Z,2.00
2023-03-27T01:41:05.566Z,1.98
2023-03-27T01:42:05.646Z,1.95
2023-03-27T01:43:05.581Z,1.98
2023-03-27T01:44:05.528Z,1.95
2023-03-27T01:45:05.523Z,1.92
2023-03-27T01:46:05.520Z,1.92
2023-03-27T01:47:05.508Z,1.90
2023-03-27T01:48:05.604Z,1.90
2023-03-27T01:49:05.501Z,1.89
2023-03-27T01:50:05.492Z,1.86
2023-03-27T01:51:05.490Z,1.85
2023-03-27T01:52:05.436Z,1.82
2023-03-27T01:53:05.481Z,1.83
2023-03-27T01:54:05.417Z,1.85
2023-03-27T01:55:05.426Z,1.83
2023-03-27T01:56:05.440Z,1.83
2023-03-27T01:57:05.428Z,1.85
2023-03-27T01:58:05.403Z,1.85
2023-03-27T01:59:05.351Z,1.83
2023-03-27T02:00:18.312Z,1.85
2023-03-27T02:01:05.651Z,1.83
2023-03-27T02:02:05.357Z,1.82
2023-03-27T02:03:05.365Z,1.81
2023-03-27T02:04:05.316Z,1.82
2023-03-27T02:05:05.353Z,1.81
2023-03-27T02:06:05.357Z,1.83
2023-03-27T02:07:05.276Z,1.82
2023-03-27T02:08:05.243Z,1.83
2023-03-27T02:09:05.401Z,1.82
2023-03-27T02:10:05.258Z,1.79
2023-03-27T02:11:05.234Z,1.77
2023-03-27T02:12:05.220Z,1.79
2023-03-27T02:13:05.202Z,1.77
2023-03-27T02:14:05.241Z,1.77
2023-03-27T02:15:23.135Z,1.79
2023-03-27T02:16:05.222Z,1.79
2023-03-27T02:17:05.151Z,1.75
2023-03-27T02:18:05.478Z,1.77
2023-03-27T02:19:05.146Z,1.74
2023-03-27T02:20:05.172Z,1.75
2023-03-27T02:21:05.110Z,1.77
2023-03-27T02:22:05.144Z,1.75
2023-03-27T02:23:05.116Z,1.75
2023-03-27T02:24:05.084Z,1.74
2023-03-27T02:25:05.156Z,1.72
2023-03-27T02:26:05.056Z,1.72
2023-03-27T02:27:05.072Z,1.68
2023-03-27T02:28:05.052Z,1.70
2023-03-27T02:29:05.008Z,1.67
2023-03-27T02:30:05.005Z,1.67
2023-03-27T02:31:05.416Z,1.68
2023-03-27T02:32:05.113Z,1.67
2023-03-27T02:33:05.075Z,1.65
2023-03-27T02:34:05.039Z,1.61
2023-03-27T02:35:04.946Z,1.57
2023-03-27T02:36:05.042Z,1.54
2023-03-27T02:37:04.977Z,1.56
2023-03-27T02:38:04.975Z,1.54
2023-03-27T02:39:04.942Z,1.57
2023-03-27T02:40:04.898Z,1.57
2023-03-27T02:41:04.892Z,1.56
2023-03-27T02:42:04.893Z,1.57
2023-03-27T02:43:04.911Z,1.63
2023-03-27T02:44:04.900Z,1.60
2023-03-27T02:45:04.844Z,1.60
2023-03-27T02:46:04.919Z,1.61
2023-03-27T02:47:04.844Z,1.60
2023-03-27T02:48:04.866Z,1.61
2023-03-27T02:49:04.837Z,1.60
2023-03-27T02:50:04.798Z,1.60
2023-03-27T02:51:04.789Z,1.56
2023-03-27T02:52:04.755Z,1.60
2023-03-27T02:53:04.835Z,1.57
2023-03-27T02:54:04.782Z,1.60
2023-03-27T02:55:04.813Z,1.60
2023-03-27T02:56:04.727Z,1.57
2023-03-27T02:57:04.780Z,1.57
2023-03-27T02:58:04.713Z,1.60
2023-03-27T02:59:04.712Z,1.52
2023-03-27T03:00:04.750Z,1.50
2023-03-27T03:01:04.690Z,1.50
2023-03-27T03:02:04.669Z,1.52
2023-03-27T03:03:04.705Z,1.52
2023-03-27T03:04:04.643Z,1.53
2023-03-27T03:05:04.647Z,1.54
2023-03-27T03:06:04.597Z,1.47
2023-03-27T03:07:04.666Z,1.46
2023-03-27T03:08:04.590Z,1.46
2023-03-27T03:09:04.623Z,1.44
2023-03-27T03:10:04.605Z,1.47
2023-03-27T03:11:04.573Z,1.46
2023-03-27T03:12:04.556Z,1.42
2023-03-27T03:13:04.543Z,1.39
2023-03-27T03:14:04.539Z,1.39
2023-03-27T03:15:04.573Z,1.38
2023-03-27T03:16:04.509Z,1.36
2023-03-27T03:17:04.590Z,1.38
2023-03-27T03:18:04.517Z,1.36
2023-03-27T03:19:04.476Z,1.36
2023-03-27T03:20:04.516Z,1.35
2023-03-27T03:21:04.469Z,1.35
2023-03-27T03:22:04.446Z,1.34
2023-03-27T03:23:04.457Z,1.32
2023-03-27T03:24:04.506Z,1.34
2023-03-27T03:25:04.428Z,1.36
2023-03-27T03:26:04.406Z,1.34
2023-03-27T03:27:04.392Z,1.34
2023-03-27T03:28:04.422Z,1.32
2023-03-27T03:29:04.378Z,1.31
2023-03-27T03:30:04.349Z,1.31
2023-03-27T03:31:04.709Z,1.34
2023-03-27T03:32:04.350Z,1.34
2023-03-27T03:33:04.438Z,1.36
2023-03-27T03:34:04.310Z,1.38
2023-03-27T03:35:05.002Z,1.35
2023-03-27T03:36:04.329Z,1.35
2023-03-27T03:37:04.290Z,1.34
2023-03-27T03:38:04.345Z,1.32
2023-03-27T03:39:04.238Z,1.32
2023-03-27T03:40:04.249Z,1.35
2023-03-27T03:41:04.280Z,1.38
2023-03-27T03:42:04.198Z,1.36
2023-03-27T03:43:04.306Z,1.36
2023-03-27T03:44:04.249Z,1.38
2023-03-27T03:45:04.182Z,1.36
2023-03-27T03:46:04.240Z,1.35
2023-03-27T03:47:04.163Z,1.31
2023-03-27T03:48:04.265Z,1.28
2023-03-27T03:49:04.125Z,1.29
2023-03-27T03:50:04.928Z,1.28
2023-03-27T03:51:04.196Z,1.26
2023-03-27T03:52:04.983Z,1.25
2023-03-27T03:53:04.109Z,1.24
2023-03-27T03:54:04.096Z,1.24
2023-03-27T03:55:04.091Z,1.21
2023-03-27T03:56:04.068Z,1.24
2023-03-27T03:57:04.062Z,1.24
2023-03-27T03:58:04.083Z,1.26
2023-03-27T03:59:04.124Z,1.25
2023-03-27T04:00:04.056Z,1.24
2023-03-27T04:01:04.020Z,1.17
2023-03-27T04:02:04.045Z,1.17
2023-03-27T04:03:04.172Z,1.18
2023-03-27T04:04:03.973Z,1.17
2023-03-27T04:05:08.632Z,1.16
2023-03-27T04:06:04.019Z,1.18
2023-03-27T04:07:03.934Z,1.17
2023-03-27T04:08:03.921Z,1.17
2023-03-27T04:09:03.893Z,1.17
2023-03-27T04:10:04.488Z,1.21
2023-03-27T04:11:03.955Z,1.24
2023-03-27T04:12:03.882Z,1.24
2023-03-27T04:13:03.899Z,1.26
2023-03-27T04:14:03.887Z,1.28
2023-03-27T04:15:03.824Z,1.26
2023-03-27T04:16:03.873Z,1.26
2023-03-27T04:17:03.842Z,1.26
2023-03-27T04:18:03.883Z,1.24
2023-03-27T04:19:03.805Z,1.24
2023-03-27T04:20:03.797Z,1.20
2023-03-27T04:21:04.505Z,1.20
2023-03-27T04:22:03.839Z,1.18
2023-03-27T04:23:03.739Z,1.18
2023-03-27T04:24:03.788Z,1.18
2023-03-27T04:25:03.719Z,1.14
2023-03-27T04:26:03.756Z,1.11
2023-03-27T04:27:03.761Z,1.13
2023-03-27T04:28:03.726Z,1.10
2023-03-27T04:29:03.693Z,1.10
2023-03-27T04:30:03.677Z,1.10
2023-03-27T04:31:03.717Z,1.11
2023-03-27T04:32:03.973Z,1.07
2023-03-27T04:33:03.659Z,1.08
2023-03-27T04:34:03.715Z,1.08
2023-03-27T04:35:03.634Z,1.08
2023-03-27T04:36:06.151Z,1.08
2023-03-27T04:37:03.593Z,1.07
2023-03-27T04:38:03.602Z,1.04
2023-03-27T04:39:03.586Z,1.08
2023-03-27T04:40:03.615Z,1.06
2023-03-27T04:41:03.575Z,1.06
2023-03-27T04:42:03.590Z,1.08
2023-03-27T04:43:03.607Z,1.10
2023-03-27T04:44:03.510Z,1.10
2023-03-27T04:45:03.520Z,1.10
2023-03-27T04:46:03.509Z,1.06
2023-03-27T04:47:03.555Z,1.04
2023-03-27T04:48:03.579Z,1.04
2023-03-27T04:49:03.502Z,1.04
2023-03-27T04:50:03.484Z,1.08
2023-03-27T04:51:03.440Z,1.06
2023-03-27T04:52:03.441Z,1.07
2023-03-27T04:53:03.435Z,1.07
2023-03-27T04:54:03.465Z,1.07
2023-03-27T04:55:03.390Z,1.07
2023-03-27T04:56:03.401Z,1.10
2023-03-27T04:57:03.499Z,1.11
2023-03-27T04:58:03.405Z,1.14
2023-03-27T04:59:03.380Z,1.20
2023-03-27T05:00:03.367Z,1.20
2023-03-27T05:01:03.371Z,1.21
2023-03-27T05:02:03.313Z,1.24
2023-03-27T05:03:03.436Z,1.21
2023-03-27T05:04:03.404Z,1.21
2023-03-27T05:05:03.400Z,1.26
2023-03-27T05:06:03.289Z,1.24
2023-03-27T05:07:03.283Z,1.24
2023-03-27T05:08:03.274Z,1.20
2023-03-27T05:09:03.269Z,1.18
2023-03-27T05:10:03.276Z,1.24
2023-03-27T05:11:03.248Z,1.24
2023-03-27T05:12:03.244Z,1.25
2023-03-27T05:13:03.186Z,1.26
2023-03-27T05:14:03.218Z,1.26
2023-03-27T05:15:03.189Z,1.26
2023-03-27T05:16:03.226Z,1.29
2023-03-27T05:17:03.157Z,1.31
2023-03-27T05:18:03.226Z,1.34
2023-03-27T05:19:03.145Z,1.34
2023-03-27T05:20:03.131Z,1.35
2023-03-27T05:21:03.099Z,1.36
2023-03-27T05:22:03.126Z,1.38
2023-03-27T05:23:03.104Z,1.42
2023-03-27T05:24:03.114Z,1.44
2023-03-27T05:25:03.089Z,1.50
2023-03-27T05:26:03.060Z,1.53
2023-03-27T05:27:03.023Z,1.56
2023-03-27T05:28:03.056Z,1.54
2023-03-27T05:29:02.997Z,1.53
2023-03-27T05:30:03.063Z,1.57
2023-03-27T05:31:03.046Z,1.61
2023-03-27T05:32:03.004Z,1.60
2023-03-27T05:33:03.022Z,1.57
2023-03-27T05:34:03.011Z,1.61
2023-03-27T05:35:03.016Z,1.64
2023-03-27T05:36:03.085Z,1.64
2023-03-27T05:37:02.921Z,1.67
2023-03-27T05:38:02.938Z,1.70
2023-03-27T05:39:02.904Z,1.71
2023-03-27T05:40:02.971Z,1.72
2023-03-27T05:41:02.898Z,1.72
2023-03-27T05:42:02.925Z,1.74
2023-03-27T05:43:02.862Z,1.74
2023-03-27T05:44:02.833Z,1.74
2023-03-27T05:45:02.819Z,1.77
2023-03-27T05:46:02.967Z,1.79
2023-03-27T05:47:02.816Z,1.81
2023-03-27T05:48:03.463Z,1.86
2023-03-27T05:49:02.816Z,1.88
2023-03-27T05:50:02.821Z,1.89
2023-03-27T05:51:02.823Z,1.92
2023-03-27T05:52:02.797Z,1.95
2023-03-27T05:53:02.770Z,1.93
2023-03-27T05:54:02.750Z,1.98
2023-03-27T05:55:02.724Z,2.00
2023-03-27T05:56:03.627Z,2.02
2023-03-27T05:57:02.744Z,2.01
2023-03-27T05:58:02.720Z,2.05
2023-03-27T05:59:02.699Z,2.09
2023-03-27T06:00:02.711Z,2.14
2023-03-27T06:01:02.709Z,2.19
2023-03-27T06:02:02.717Z,2.23
2023-03-27T06:03:02.882Z,2.26
2023-03-27T06:04:02.689Z,2.26
2023-03-27T06:05:02.598Z,2.33
2023-03-27T06:06:02.621Z,2.36
2023-03-27T06:07:02.599Z,2.36
2023-03-27T06:08:02.606Z,2.37
2023-03-27T06:09:02.589Z,2.40
2023-03-27T06:10:02.612Z,2.41
2023-03-27T06:11:02.545Z,2.38
2023-03-27T06:12:02.527Z,2.38
2023-03-27T06:13:02.601Z,2.40
2023-03-27T06:14:02.537Z,2.37
2023-03-27T06:15:02.535Z,2.38
2023-03-27T06:16:02.527Z,2.36
2023-03-27T06:17:02.470Z,2.33
2023-03-27T06:18:02.540Z,2.37
2023-03-27T06:19:02.460Z,2.38
2023-03-27T06:20:02.488Z,2.32
2023-03-27T06:21:02.462Z,2.32
2023-03-27T06:22:02.468Z,2.27
2023-03-27T06:23:02.432Z,2.32
2023-03-27T06:24:02.393Z,2.37
2023-03-27T06:25:02.372Z,2.38
2023-03-27T06:26:02.358Z,2.37
2023-03-27T06:27:02.353Z,2.41
2023-03-27T06:28:02.386Z,2.47
2023-03-27T06:29:02.443Z,2.48
2023-03-27T06:30:02.446Z,2.51
2023-03-27T06:31:02.311Z,2.58
2023-03-27T06:32:02.367Z,2.58
2023-03-27T06:33:02.305Z,2.62
2023-03-27T06:34:02.292Z,2.68
2023-03-27T06:35:02.382Z,2.66
2023-03-27T06:36:02.294Z,2.68
2023-03-27T06:37:02.248Z,2.79
2023-03-27T06:38:02.262Z,2.76
2023-03-27T06:39:02.273Z,2.79
2023-03-27T06:40:02.330Z,2.83
2023-03-27T06:41:02.261Z,2.89
2023-03-27T06:42:02.274Z,2.90
2023-03-27T06:43:02.202Z,2.95
2023-03-27T06:44:02.192Z,2.99
2023-03-27T06:45:02.201Z,3.01
2023-03-27T06:46:02.189Z,3.05
2023-03-27T06:47:02.176Z,3.04
2023-03-27T06:48:13.603Z,3.05
2023-03-27T06:49:02.281Z,3.15
2023-03-27T06:50:02.121Z,3.22
2023-03-27T06:51:02.136Z,3.19
2023-03-27T06:52:02.068Z,3.17
2023-03-27T06:53:03.043Z,3.30
2023-03-27T06:54:02.060Z,3.25
2023-03-27T06:55:02.075Z,3.28
2023-03-27T06:56:02.078Z,3.30
2023-03-27T06:57:02.075Z,3.37
2023-03-27T06:58:02.002Z,3.41
2023-03-27T06:59:02.018Z,3.41
2023-03-27T07:00:02.672Z,3.50
2023-03-27T07:01:01.976Z,3.59
2023-03-27T07:02:02.101Z,3.68
2023-03-27T07:03:01.969Z,3.64
2023-03-27T07:04:01.938Z,3.67
2023-03-27T07:05:05.284Z,3.71
2023-03-27T07:06:02.080Z,3.80
2023-03-27T07:07:01.896Z,3.81
2023-03-27T07:08:14.855Z,3.80
2023-03-27T07:09:01.886Z,3.86
2023-03-27T07:10:01.858Z,3.93
2023-03-27T07:11:11.654Z,3.89
2023-03-27T07:12:01.850Z,3.81
2023-03-27T07:13:01.831Z,3.81
2023-03-27T07:14:01.812Z,3.77
2023-03-27T07:15:01.807Z,3.71
2023-03-27T07:16:01.915Z,3.75
2023-03-27T07:17:01.805Z,3.88
2023-03-27T07:18:01.805Z,3.93
2023-03-27T07:19:02.533Z,3.98
2023-03-27T07:20:01.797Z,4.00
2023-03-27T07:21:01.782Z,4.11
2023-03-27T07:22:01.746Z,4.21
2023-03-27T07:23:01.726Z,4.32
2023-03-27T07:24:01.724Z,4.38
2023-03-27T07:25:01.704Z,4.35
2023-03-27T07:26:01.701Z,4.38
2023-03-27T07:27:01.716Z,4.44
2023-03-27T07:28:02.109Z,4.43
2023-03-27T07:29:01.663Z,4.38
2023-03-27T07:30:01.650Z,4.46
2023-03-27T07:31:01.633Z,4.49
2023-03-27T07:32:04.504Z,4.54
2023-03-27T07:33:01.733Z,4.59
2023-03-27T07:34:01.669Z,4.67
2023-03-27T07:35:01.598Z,4.77
2023-03-27T07:36:01.581Z,4.86
2023-03-27T07:37:01.598Z,4.87
2023-03-27T07:38:01.572Z,4.90
2023-03-27T07:39:01.551Z,4.90
2023-03-27T07:40:01.521Z,4.91
2023-03-27T07:41:01.520Z,4.94
2023-03-27T07:42:01.522Z,4.99
2023-03-27T07:43:01.498Z,5.09
2023-03-27T07:44:01.563Z,5.20
2023-03-27T07:45:04.026Z,5.29
2023-03-27T07:46:01.504Z,5.27
2023-03-27T07:47:01.472Z,5.20
2023-03-27T07:48:01.609Z,5.20
2023-03-27T07:49:01.432Z,5.32
2023-03-27T07:50:01.442Z,5.32
2023-03-27T07:52:01.413Z,5.47
2023-03-27T07:53:01.386Z,5.56
2023-03-27T07:54:01.375Z,5.55
2023-03-27T07:55:01.386Z,5.55
2023-03-27T07:56:01.348Z,5.51
2023-03-27T07:57:01.430Z,5.51
2023-03-27T07:58:03.312Z,5.59
2023-03-27T07:59:01.316Z,5.66
2023-03-27T08:00:01.300Z,5.73
2023-03-27T08:01:01.297Z,5.75
2023-03-27T08:02:01.306Z,5.87
2023-03-27T08:03:01.446Z,5.95
2023-03-27T08:04:01.334Z,6.01
2023-03-27T08:05:01.374Z,5.99
2023-03-27T08:06:01.293Z,6.02
2023-03-27T08:07:01.250Z,6.14
2023-03-27T08:08:01.218Z,6.13
2023-03-27T08:09:02.835Z,6.10
2023-03-27T08:10:01.199Z,6.11
2023-03-27T08:11:01.184Z,5.98
2023-03-27T08:12:01.192Z,5.92
2023-03-27T08:13:01.171Z,6.03
2023-03-27T08:14:01.141Z,6.14
2023-03-27T08:15:01.152Z,6.24
2023-03-27T08:16:01.135Z,6.30
2023-03-27T08:17:14.507Z,6.24
2023-03-27T08:18:01.201Z,6.13
2023-03-27T08:19:01.128Z,6.20
2023-03-27T08:20:01.077Z,6.13
2023-03-27T08:21:01.062Z,6.21
2023-03-27T08:22:01.073Z,6.38
2023-03-27T08:23:01.047Z,6.57
2023-03-27T08:24:01.031Z,6.63
2023-03-27T08:25:01.027Z,6.55
2023-03-27T08:26:01.014Z,6.51
2023-03-27T08:27:01.020Z,6.42
2023-03-27T08:28:00.981Z,6.30
2023-03-27T08:29:00.976Z,6.19
2023-03-27T08:30:00.965Z,6.06
2023-03-27T08:31:02.953Z,6.16
2023-03-27T08:32:01.516Z,6.20
2023-03-27T08:33:01.002Z,6.21
2023-03-27T08:34:00.919Z,6.17
2023-03-27T08:35:00.906Z,6.19
2023-03-27T08:36:00.941Z,6.17
2023-03-27T08:37:00.903Z,6.05
2023-03-27T08:38:00.865Z,6.16
2023-03-27T08:39:00.867Z,6.17
2023-03-27T08:40:00.840Z,6.14
2023-03-27T08:41:00.850Z,6.14
2023-03-27T08:42:00.845Z,6.11
2023-03-27T08:43:00.827Z,6.02
2023-03-27T08:44:00.806Z,6.10
2023-03-27T08:45:00.808Z,6.10
2023-03-27T08:46:00.875Z,6.19
2023-03-27T08:47:00.790Z,6.33
2023-03-27T08:48:00.802Z,6.55
2023-03-27T08:49:00.759Z,6.71
2023-03-27T08:50:00.740Z,6.81
2023-03-27T08:51:00.736Z,6.86
2023-03-27T08:52:00.745Z,6.86
2023-03-27T08:53:00.713Z,6.97
2023-03-27T08:54:00.706Z,7.00
2023-03-27T08:55:00.710Z,6.99
2023-03-27T08:56:00.696Z,6.91
2023-03-27T08:57:00.735Z,6.96
2023-03-27T08:58:00.642Z,6.97
2023-03-27T08:59:00.650Z,6.90
2023-03-27T09:00:00.645Z,6.89
2023-03-27T09:01:00.612Z,6.96
2023-03-27T09:02:00.633Z,7.18
2023-03-27T09:03:00.733Z,7.29
2023-03-27T09:04:00.706Z,7.19
2023-03-27T09:05:00.588Z,7.19
2023-03-27T09:06:00.560Z,7.16
2023-03-27T09:07:00.566Z,6.97
2023-03-27T09:08:00.547Z,6.93
2023-03-27T09:09:00.596Z,6.83
2023-03-27T09:10:00.522Z,6.79
2023-03-27T09:11:00.514Z,6.73
2023-03-27T09:12:00.522Z,6.73
2023-03-27T09:13:00.484Z,6.72
2023-03-27T09:14:00.482Z,6.94
2023-03-27T09:15:00.484Z,7.09
2023-03-27T09:16:00.657Z,7.11
2023-03-27T09:17:00.459Z,7.08
2023-03-27T09:18:00.467Z,7.08
2023-03-27T09:19:00.410Z,7.04
2023-03-27T09:20:00.395Z,7.01
2023-03-27T09:21:00.389Z,6.90
2023-03-27T09:22:00.400Z,6.91
2023-03-27T09:23:00.369Z,7.14
2023-03-27T09:24:00.359Z,7.12
2023-03-27T09:25:00.347Z,7.30
2023-03-27T09:26:00.335Z,7.44
2023-03-27T09:27:07.157Z,7.70
2023-03-27T09:28:00.309Z,7.89
2023-03-27T09:29:00.320Z,8.09
2023-03-27T09:30:04.909Z,8.21
2023-03-27T09:31:00.324Z,8.34
2023-03-27T09:32:00.277Z,8.31
2023-03-27T09:33:00.293Z,8.32
2023-03-27T09:34:00.239Z,8.25
2023-03-27T09:35:00.230Z,7.85
2023-03-27T09:36:00.557Z,7.47
2023-03-27T09:37:00.226Z,7.41
2023-03-27T09:38:00.257Z,7.30
2023-03-27T09:39:00.180Z,7.34
2023-03-27T09:40:00.222Z,7.34
2023-03-27T09:41:00.159Z,7.57
2023-03-27T09:42:00.165Z,7.67
2023-03-27T09:43:00.153Z,7.85
2023-03-27T09:44:00.120Z,8.03
2023-03-27T09:45:00.132Z,8.21
2023-03-27T09:46:00.132Z,8.31
2023-03-27T09:47:00.150Z,7.96
2023-03-27T09:48:00.111Z,7.54
2023-03-27T09:49:00.069Z,7.48
2023-03-27T09:50:00.097Z,7.45
2023-03-27T09:51:00.056Z,7.41
2023-03-27T09:52:00.100Z,7.37
2023-03-27T09:53:00.034Z,7.47
2023-03-27T09:54:00.009Z,7.69
2023-03-27T09:55:00.002Z,7.74
2023-03-27T09:56:02.389Z,7.84
2023-03-27T09:57:00.058Z,7.71
2023-03-27T09:57:59.966Z,7.69
2023-03-27T09:58:59.973Z,7.58
2023-03-27T09:59:59.935Z,7.77
2023-03-27T10:01:00.009Z,7.85
2023-03-27T10:01:59.969Z,7.82
2023-03-27T10:02:59.992Z,8.04
2023-03-27T10:04:00.008Z,8.21
2023-03-27T10:04:59.900Z,8.39
2023-03-27T10:05:59.885Z,8.21
2023-03-27T10:06:59.890Z,8.24
2023-03-27T10:07:59.862Z,8.27
2023-03-27T10:08:59.848Z,8.42
2023-03-27T10:09:59.829Z,8.57
2023-03-27T10:10:59.898Z,8.46
2023-03-27T10:11:59.840Z,8.25
2023-03-27T10:12:59.828Z,8.24
2023-03-27T10:13:59.830Z,8.49
2023-03-27T10:14:59.798Z,8.73
2023-03-27T10:15:59.765Z,8.89
2023-03-27T10:16:59.828Z,8.88
2023-03-27T10:17:59.886Z,9.03
2023-03-27T10:18:59.813Z,8.91
2023-03-27T10:19:59.715Z,8.85
2023-03-27T10:20:59.732Z,9.10
2023-03-27T10:21:59.709Z,8.93
2023-03-27T10:22:59.697Z,8.79
2023-03-27T10:23:59.688Z,8.75
2023-03-27T10:24:59.670Z,8.70
2023-03-27T10:25:59.647Z,8.54
2023-03-27T10:26:59.672Z,8.57
2023-03-27T10:27:59.637Z,8.73
2023-03-27T10:28:59.616Z,8.89
2023-03-27T10:29:59.615Z,9.12
2023-03-27T10:30:59.621Z,8.85
2023-03-27T10:31:59.630Z,8.70
2023-03-27T10:32:59.607Z,8.73
2023-03-27T10:33:59.554Z,8.75
2023-03-27T10:34:59.549Z,8.70
2023-03-27T10:35:59.629Z,8.45
2023-03-27T10:36:59.537Z,8.61
2023-03-27T10:37:59.514Z,8.79
2023-03-27T10:38:59.503Z,8.93
2023-03-27T10:39:59.492Z,8.75
2023-03-27T10:40:59.533Z,8.64
2023-03-27T10:41:59.495Z,8.60
2023-03-27T10:42:59.502Z,8.61
2023-03-27T10:43:59.460Z,8.42
2023-03-27T10:44:59.428Z,8.28
2023-03-27T10:45:59.499Z,8.25
2023-03-27T10:46:59.463Z,8.25
2023-03-27T10:47:59.438Z,8.31
2023-03-27T10:48:59.406Z,8.32
2023-03-27T10:49:59.378Z,8.22
2023-03-27T10:50:59.385Z,8.18
2023-03-27T10:51:59.385Z,8.18
2023-03-27T10:52:59.411Z,8.10
2023-03-27T10:53:59.417Z,8.13
2023-03-27T10:54:59.331Z,8.14
2023-03-27T10:55:59.376Z,7.94
2023-03-27T10:56:59.383Z,7.92
2023-03-27T10:57:59.305Z,7.91
2023-03-27T10:58:59.269Z,7.73
2023-03-27T10:59:59.264Z,7.81
2023-03-27T11:00:59.569Z,7.85
2023-03-27T11:01:59.302Z,7.73
2023-03-27T11:02:59.235Z,7.82
2023-03-27T11:03:59.269Z,7.91
2023-03-27T11:04:59.201Z,7.92
2023-03-27T11:05:59.206Z,7.95
2023-03-27T11:06:59.208Z,7.95
2023-03-27T11:07:59.170Z,7.82
2023-03-27T11:08:59.151Z,8.02
2023-03-27T11:09:59.193Z,7.86
2023-03-27T11:10:59.259Z,7.88
2023-03-27T11:11:59.155Z,8.00
2023-03-27T11:12:59.128Z,8.24
2023-03-27T11:13:59.105Z,8.55
2023-03-27T11:14:59.089Z,8.63
2023-03-27T11:15:59.128Z,8.65
2023-03-27T11:16:59.234Z,8.88
2023-03-27T11:17:59.160Z,9.08
2023-03-27T11:18:59.038Z,8.91
2023-03-27T11:19:59.074Z,8.86
2023-03-27T11:20:59.153Z,8.98
2023-03-27T11:21:59.025Z,9.23
2023-03-27T11:22:59.006Z,9.40
2023-03-27T11:23:58.995Z,9.56
2023-03-27T11:24:58.976Z,9.68
2023-03-27T11:25:58.961Z,9.58
2023-03-27T11:26:58.964Z,9.68
2023-03-27T11:27:58.939Z,9.81
2023-03-27T11:28:58.956Z,10.04
2023-03-27T11:29:58.938Z,10.09
2023-03-27T11:30:59.138Z,10.44
2023-03-27T11:31:58.987Z,10.66
2023-03-27T11:32:58.899Z,10.62
2023-03-27T11:33:58.882Z,10.54
2023-03-27T11:34:58.871Z,10.25
2023-03-27T11:35:58.881Z,9.92
2023-03-27T11:36:58.853Z,9.27
2023-03-27T11:37:58.837Z,8.40
2023-03-27T11:38:58.817Z,7.92
2023-03-27T11:39:58.809Z,7.45
2023-03-27T11:40:59.001Z,7.24
2023-03-27T11:41:58.816Z,6.76
2023-03-27T11:42:58.779Z,6.40
2023-03-27T11:43:58.760Z,5.98
2023-03-27T11:44:58.753Z,5.45
2023-03-27T11:45:58.777Z,5.15
2023-03-27T11:46:58.741Z,5.08
2023-03-27T11:47:58.754Z,5.11
2023-03-27T11:48:58.710Z,5.15
2023-03-27T11:49:58.695Z,5.20
2023-03-27T11:50:59.036Z,5.09
2023-03-27T11:51:58.686Z,4.93
2023-03-27T11:52:58.663Z,5.06
2023-03-27T11:53:58.667Z,5.26
2023-03-27T11:54:58.647Z,5.20
2023-03-27T11:55:58.630Z,5.40
2023-03-27T11:56:58.658Z,5.70
2023-03-27T11:57:58.627Z,5.98
2023-03-27T11:58:58.586Z,6.05
2023-03-27T11:59:58.592Z,6.14
2023-03-27T12:00:58.833Z,6.38
2023-03-27T12:01:58.641Z,6.57
2023-03-27T12:02:58.622Z,6.60
2023-03-27T12:03:58.674Z,6.65
2023-03-27T12:04:58.565Z,6.86
2023-03-27T12:05:58.521Z,6.86
2023-03-27T12:07:04.293Z,7.01
2023-03-27T12:07:58.492Z,7.30
2023-03-27T12:08:58.553Z,7.19
2023-03-27T12:09:58.465Z,7.27
2023-03-27T12:10:58.599Z,7.45
2023-03-27T12:11:58.479Z,7.51
2023-03-27T12:12:58.427Z,7.67
2023-03-27T12:14:02.046Z,7.88
2023-03-27T12:14:58.413Z,8.06
2023-03-27T12:15:58.405Z,8.28
2023-03-27T12:16:58.427Z,8.36
2023-03-27T12:17:58.472Z,8.25
2023-03-27T12:19:03.803Z,8.24
2023-03-27T12:19:58.358Z,8.21
2023-03-27T12:20:58.347Z,8.27
2023-03-27T12:21:58.349Z,8.43
2023-03-27T12:22:58.328Z,8.52
2023-03-27T12:23:58.322Z,8.50
2023-03-27T12:24:59.897Z,8.61
2023-03-27T12:25:58.284Z,8.61
2023-03-27T12:26:58.287Z,8.46
2023-03-27T12:27:58.262Z,8.52
2023-03-27T12:28:58.254Z,8.45
2023-03-27T12:29:58.254Z,8.39
2023-03-27T12:30:58.379Z,8.63
2023-03-27T12:31:58.315Z,8.80
2023-03-27T12:33:00.125Z,8.94
2023-03-27T12:33:58.190Z,9.08
2023-03-27T12:34:58.179Z,9.24
2023-03-27T12:35:58.209Z,9.38
2023-03-27T12:36:58.180Z,9.31
2023-03-27T12:37:58.152Z,8.73
2023-03-27T12:38:58.137Z,8.97
2023-03-27T12:39:58.122Z,9.35
2023-03-27T12:40:58.171Z,9.48
2023-03-27T12:41:58.134Z,9.49
2023-03-27T12:42:58.084Z,9.73
2023-03-27T12:43:58.094Z,9.65
2023-03-27T12:45:00.026Z,9.62
2023-03-27T12:45:58.123Z,9.56
2023-03-27T12:46:58.101Z,9.48
2023-03-27T12:47:58.051Z,9.41
2023-03-27T12:48:58.057Z,9.19
2023-03-27T12:49:58.021Z,9.13
2023-03-27T12:50:58.262Z,8.96
2023-03-27T12:51:58.031Z,9.03
2023-03-27T12:52:57.972Z,8.98
2023-03-27T12:53:57.986Z,9.00
2023-03-27T12:54:57.985Z,8.96
2023-03-27T12:55:58.218Z,9.01
2023-03-27T12:56:58.073Z,8.93
2023-03-27T12:57:58.069Z,8.80
2023-03-27T12:58:57.905Z,8.47
2023-03-27T12:59:57.907Z,8.18
2023-03-27T13:00:58.016Z,7.94
2023-03-27T13:01:57.922Z,7.54
2023-03-27T13:02:57.953Z,7.34
2023-03-27T13:03:57.950Z,7.30
2023-03-27T13:04:57.848Z,7.09
2023-03-27T13:05:57.839Z,6.58
2023-03-27T13:06:57.832Z,6.05
2023-03-27T13:07:57.825Z,5.60
2023-03-27T13:08:57.813Z,5.65
2023-03-27T13:09:57.785Z,5.66
2023-03-27T13:10:57.950Z,5.75
2023-03-27T13:11:57.806Z,5.81
2023-03-27T13:12:57.744Z,6.13
2023-03-27T13:13:57.740Z,6.42
2023-03-27T13:14:57.736Z,6.76
2023-03-27T13:15:57.961Z,6.89
2023-03-27T13:16:57.721Z,7.14
2023-03-27T13:17:57.717Z,7.23
2023-03-27T13:18:57.695Z,7.37